sensor_id;sensor_type;location;lat;lon;timestamp;noise_LAeq;noise_LA_min;noise_LA_max;noise_LA01;noise_LA95
46749;Laerm;33775;47.992;11.864;2024-01-10T00:01:05;37.10;31.68;39.81;;
46749;Laerm;33775;47.992;11.864;2024-01-10T00:03:30;37.10;32.93;39.81;;
46749;Laerm;33775;47.992;11.864;2024-01-10T00:05:55;37.08;31.68;39.81;;
46749;Laerm;33775;47.992;11.864;2024-01-10T00:08:21;37.10;32.35;40.13;;
46749;Laerm;33775;47.992;11.864;2024-01-10T00:10:46;37.11;32.58;40.23;;
46749;Laerm;33775;47.992;11.864;2024-01-10T00:13:11;37.07;32.35;39.58;;
46749;Laerm;33775;47.992;11.864;2024-01-10T00:15:36;37.10;32.93;40.13;;
46749;Laerm;33775;47.992;11.864;2024-01-10T00:18:01;37.12;32.93;39.81;;
46749;Laerm;33775;47.992;11.864;2024-01-10T00:20:27;37.13;32.35;39.92;;
46749;Laerm;33775;47.992;11.864;2024-01-10T00:22:52;37.11;32.93;39.81;;
46749;Laerm;33775;47.992;11.864;2024-01-10T00:25:17;37.08;33.44;39.92;;
46749;Laerm;33775;47.992;11.864;2024-01-10T00:27:42;37.08;30.89;40.13;;
46749;Laerm;33775;47.992;11.864;2024-01-10T00:30:08;37.07;32.35;40.13;;
46749;Laerm;33775;47.992;11.864;2024-01-10T00:32:33;37.10;32.35;40.03;;
46749;Laerm;33775;47.992;11.864;2024-01-10T00:34:59;37.09;30.89;40.03;;
46749;Laerm;33775;47.992;11.864;2024-01-10T00:37:24;37.12;32.93;39.92;;
46749;Laerm;33775;47.992;11.864;2024-01-10T00:39:49;37.13;32.35;39.81;;
46749;Laerm;33775;47.992;11.864;2024-01-10T00:42:14;37.10;32.35;40.33;;
46749;Laerm;33775;47.992;11.864;2024-01-10T00:44:39;37.14;32.93;40.23;;
46749;Laerm;33775;47.992;11.864;2024-01-10T00:47:05;37.07;32.35;40.23;;
46749;Laerm;33775;47.992;11.864;2024-01-10T00:49:30;37.09;32.35;40.23;;
46749;Laerm;33775;47.992;11.864;2024-01-10T00:51:55;37.08;32.93;39.92;;
46749;Laerm;33775;47.992;11.864;2024-01-10T00:54:20;37.09;32.35;39.81;;
46749;Laerm;33775;47.992;11.864;2024-01-10T00:56:45;37.10;31.68;39.81;;
46749;Laerm;33775;47.992;11.864;2024-01-10T00:59:11;37.08;32.35;40.23;;
46749;Laerm;33775;47.992;11.864;2024-01-10T01:01:36;37.06;31.68;39.81;;
46749;Laerm;33775;47.992;11.864;2024-01-10T01:04:01;37.08;31.68;39.92;;
46749;Laerm;33775;47.992;11.864;2024-01-10T01:06:27;37.09;31.68;39.58;;
46749;Laerm;33775;47.992;11.864;2024-01-10T01:08:52;37.07;29.92;39.92;;
46749;Laerm;33775;47.992;11.864;2024-01-10T01:11:17;37.11;32.35;39.81;;
46749;Laerm;33775;47.992;11.864;2024-01-10T01:13:43;37.09;31.68;39.81;;
46749;Laerm;33775;47.992;11.864;2024-01-10T01:16:09;37.12;31.68;39.70;;
46749;Laerm;33775;47.992;11.864;2024-01-10T01:18:34;37.10;32.35;39.92;;
46749;Laerm;33775;47.992;11.864;2024-01-10T01:20:59;37.07;32.35;39.81;;
46749;Laerm;33775;47.992;11.864;2024-01-10T01:23:25;37.08;31.68;40.13;;
46749;Laerm;33775;47.992;11.864;2024-01-10T01:25:50;37.08;32.35;40.03;;
46749;Laerm;33775;47.992;11.864;2024-01-10T01:28:16;37.08;32.35;40.03;;
46749;Laerm;33775;47.992;11.864;2024-01-10T01:30:41;37.05;31.68;39.81;;
46749;Laerm;33775;47.992;11.864;2024-01-10T01:33:06;37.09;32.35;39.81;;
46749;Laerm;33775;47.992;11.864;2024-01-10T01:35:31;37.09;32.93;40.33;;
46749;Laerm;33775;47.992;11.864;2024-01-10T01:37:56;37.09;32.35;39.70;;
46749;Laerm;33775;47.992;11.864;2024-01-10T01:40:22;37.12;32.35;39.89;;
46749;Laerm;33775;47.992;11.864;2024-01-10T01:42:47;37.10;32.93;40.23;;
46749;Laerm;33775;47.992;11.864;2024-01-10T01:45:13;37.11;32.35;39.92;;
46749;Laerm;33775;47.992;11.864;2024-01-10T01:47:38;37.12;32.93;40.03;;
46749;Laerm;33775;47.992;11.864;2024-01-10T01:50:04;37.13;32.35;40.03;;
46749;Laerm;33775;47.992;11.864;2024-01-10T01:52:30;37.15;31.68;39.70;;
46749;Laerm;33775;47.992;11.864;2024-01-10T01:54:56;37.09;29.92;40.13;;
46749;Laerm;33775;47.992;11.864;2024-01-10T01:57:21;37.12;32.35;39.89;;
46749;Laerm;33775;47.992;11.864;2024-01-10T01:59:47;37.10;32.35;39.70;;
46749;Laerm;33775;47.992;11.864;2024-01-10T02:02:12;37.11;31.68;40.03;;
46749;Laerm;33775;47.992;11.864;2024-01-10T02:04:38;37.14;32.93;39.92;;
46749;Laerm;33775;47.992;11.864;2024-01-10T02:07:03;37.10;32.35;39.92;;
46749;Laerm;33775;47.992;11.864;2024-01-10T02:09:28;37.11;31.68;40.13;;
46749;Laerm;33775;47.992;11.864;2024-01-10T02:11:54;37.11;31.68;39.58;;
46749;Laerm;33775;47.992;11.864;2024-01-10T02:14:19;37.12;32.35;39.78;;
46749;Laerm;33775;47.992;11.864;2024-01-10T02:16:44;37.09;31.68;40.33;;
46749;Laerm;33775;47.992;11.864;2024-01-10T02:19:19;37.11;31.68;39.81;;
46749;Laerm;33775;47.992;11.864;2024-01-10T02:21:45;37.11;32.93;39.81;;
46749;Laerm;33775;47.992;11.864;2024-01-10T02:24:10;37.09;32.93;39.81;;
46749;Laerm;33775;47.992;11.864;2024-01-10T02:26:35;37.06;32.93;39.70;;
46749;Laerm;33775;47.992;11.864;2024-01-10T02:29:01;37.11;32.35;39.92;;
46749;Laerm;33775;47.992;11.864;2024-01-10T02:31:26;37.09;30.89;40.13;;
46749;Laerm;33775;47.992;11.864;2024-01-10T02:33:52;37.12;32.35;39.92;;
46749;Laerm;33775;47.992;11.864;2024-01-10T02:36:17;37.12;32.93;40.03;;
46749;Laerm;33775;47.992;11.864;2024-01-10T02:38:42;37.14;32.93;39.81;;
46749;Laerm;33775;47.992;11.864;2024-01-10T02:41:07;37.14;32.35;39.81;;
46749;Laerm;33775;47.992;11.864;2024-01-10T02:43:33;37.10;32.93;39.81;;
46749;Laerm;33775;47.992;11.864;2024-01-10T02:45:58;37.11;32.00;40.03;;
46749;Laerm;33775;47.992;11.864;2024-01-10T02:48:24;37.10;33.44;39.70;;
46749;Laerm;33775;47.992;11.864;2024-01-10T02:50:49;37.13;31.68;40.13;;
46749;Laerm;33775;47.992;11.864;2024-01-10T02:53:14;37.11;32.35;40.33;;
46749;Laerm;33775;47.992;11.864;2024-01-10T02:55:39;37.14;32.35;39.70;;
46749;Laerm;33775;47.992;11.864;2024-01-10T02:58:05;37.16;32.93;40.13;;
46749;Laerm;33775;47.992;11.864;2024-01-10T03:00:30;37.11;32.93;39.70;;
46749;Laerm;33775;47.992;11.864;2024-01-10T03:02:55;37.12;31.68;40.03;;
46749;Laerm;33775;47.992;11.864;2024-01-10T03:05:20;37.14;31.68;40.13;;
46749;Laerm;33775;47.992;11.864;2024-01-10T03:07:45;37.15;32.35;39.92;;
46749;Laerm;33775;47.992;11.864;2024-01-10T03:10:11;37.14;32.93;39.81;;
46749;Laerm;33775;47.992;11.864;2024-01-10T03:12:36;37.14;30.89;40.13;;
46749;Laerm;33775;47.992;11.864;2024-01-10T03:15:03;37.11;30.89;40.33;;
46749;Laerm;33775;47.992;11.864;2024-01-10T03:17:28;37.14;32.35;40.33;;
46749;Laerm;33775;47.992;11.864;2024-01-10T03:19:53;37.11;32.93;40.43;;
46749;Laerm;33775;47.992;11.864;2024-01-10T03:22:19;37.16;32.35;40.23;;
46749;Laerm;33775;47.992;11.864;2024-01-10T03:24:44;37.13;32.93;40.03;;
46749;Laerm;33775;47.992;11.864;2024-01-10T03:27:09;37.14;31.68;40.03;;
46749;Laerm;33775;47.992;11.864;2024-01-10T03:29:34;37.13;32.93;39.92;;
46749;Laerm;33775;47.992;11.864;2024-01-10T03:32:00;37.13;32.35;39.92;;
46749;Laerm;33775;47.992;11.864;2024-01-10T03:34:25;37.12;32.93;40.03;;
46749;Laerm;33775;47.992;11.864;2024-01-10T03:36:50;37.11;29.92;39.70;;
46749;Laerm;33775;47.992;11.864;2024-01-10T03:39:15;37.10;30.89;40.13;;
46749;Laerm;33775;47.992;11.864;2024-01-10T03:41:41;37.12;32.93;39.70;;
46749;Laerm;33775;47.992;11.864;2024-01-10T03:44:06;37.12;32.35;39.92;;
46749;Laerm;33775;47.992;11.864;2024-01-10T03:46:31;37.10;29.92;39.81;;
46749;Laerm;33775;47.992;11.864;2024-01-10T03:48:56;37.09;32.58;40.03;;
46749;Laerm;33775;47.992;11.864;2024-01-10T03:51:22;37.11;32.35;40.23;;
46749;Laerm;33775;47.992;11.864;2024-01-10T03:53:47;37.10;31.68;39.92;;
46749;Laerm;33775;47.992;11.864;2024-01-10T03:56:14;37.08;31.68;40.43;;
46749;Laerm;33775;47.992;11.864;2024-01-10T03:58:39;37.07;31.68;39.70;;
46749;Laerm;33775;47.992;11.864;2024-01-10T04:01:05;37.05;31.68;39.89;;
46749;Laerm;33775;47.992;11.864;2024-01-10T04:03:31;37.05;32.35;39.46;;
46749;Laerm;33775;47.992;11.864;2024-01-10T04:05:56;37.05;31.68;39.81;;
46749;Laerm;33775;47.992;11.864;2024-01-10T04:08:21;37.04;31.68;40.23;;
46749;Laerm;33775;47.992;11.864;2024-01-10T04:10:47;37.08;32.93;40.03;;
46749;Laerm;33775;47.992;11.864;2024-01-10T04:13:12;37.05;32.93;39.92;;
46749;Laerm;33775;47.992;11.864;2024-01-10T04:15:37;37.02;32.35;39.92;;
46749;Laerm;33775;47.992;11.864;2024-01-10T04:18:02;37.01;30.89;39.70;;
46749;Laerm;33775;47.992;11.864;2024-01-10T04:20:28;36.98;32.93;39.92;;
46749;Laerm;33775;47.992;11.864;2024-01-10T04:22:53;37.00;32.35;39.70;;
46749;Laerm;33775;47.992;11.864;2024-01-10T04:25:18;36.96;32.35;39.92;;
46749;Laerm;33775;47.992;11.864;2024-01-10T04:27:43;36.97;32.35;39.92;;
46749;Laerm;33775;47.992;11.864;2024-01-10T04:30:11;37.00;32.35;39.92;;
46749;Laerm;33775;47.992;11.864;2024-01-10T04:32:37;36.99;32.35;40.03;;
46749;Laerm;33775;47.992;11.864;2024-01-10T04:35:02;37.01;30.89;40.03;;
46749;Laerm;33775;47.992;11.864;2024-01-10T04:37:27;37.02;32.35;39.70;;
46749;Laerm;33775;47.992;11.864;2024-01-10T04:39:53;37.03;30.89;40.03;;
46749;Laerm;33775;47.992;11.864;2024-01-10T04:42:18;37.02;32.93;40.13;;
46749;Laerm;33775;47.992;11.864;2024-01-10T04:44:43;37.02;32.35;39.81;;
46749;Laerm;33775;47.992;11.864;2024-01-10T04:47:08;37.06;32.93;39.92;;
46749;Laerm;33775;47.992;11.864;2024-01-10T04:49:33;37.04;32.93;39.92;;
46749;Laerm;33775;47.992;11.864;2024-01-10T04:51:59;37.06;32.35;39.70;;
46749;Laerm;33775;47.992;11.864;2024-01-10T04:54:24;37.08;32.35;39.81;;
46749;Laerm;33775;47.992;11.864;2024-01-10T04:56:49;37.07;32.35;40.23;;
46749;Laerm;33775;47.992;11.864;2024-01-10T04:59:15;37.06;32.35;39.58;;
46749;Laerm;33775;47.992;11.864;2024-01-10T05:01:40;37.07;32.35;39.92;;
46749;Laerm;33775;47.992;11.864;2024-01-10T05:04:05;37.06;31.68;39.81;;
46749;Laerm;33775;47.992;11.864;2024-01-10T05:06:31;37.07;31.68;39.92;;
46749;Laerm;33775;47.992;11.864;2024-01-10T05:08:56;37.04;32.35;39.81;;
46749;Laerm;33775;47.992;11.864;2024-01-10T05:11:23;37.05;31.68;39.81;;
46749;Laerm;33775;47.992;11.864;2024-01-10T05:13:49;37.09;31.68;39.70;;
46749;Laerm;33775;47.992;11.864;2024-01-10T05:16:14;37.05;31.68;40.13;;
46749;Laerm;33775;47.992;11.864;2024-01-10T05:18:39;37.04;30.89;39.70;;
46749;Laerm;33775;47.992;11.864;2024-01-10T05:21:04;37.06;30.89;39.81;;
46749;Laerm;33775;47.992;11.864;2024-01-10T05:23:30;37.03;32.58;39.81;;
46749;Laerm;33775;47.992;11.864;2024-01-10T05:25:55;37.04;32.35;40.03;;
46749;Laerm;33775;47.992;11.864;2024-01-10T05:28:20;36.99;31.68;39.70;;
46749;Laerm;33775;47.992;11.864;2024-01-10T05:30:46;37.01;31.68;39.81;;
46749;Laerm;33775;47.992;11.864;2024-01-10T05:33:11;37.01;32.35;39.70;;
46749;Laerm;33775;47.992;11.864;2024-01-10T05:35:39;37.00;32.35;39.70;;
46749;Laerm;33775;47.992;11.864;2024-01-10T05:38:04;37.00;32.93;39.70;;
46749;Laerm;33775;47.992;11.864;2024-01-10T05:40:30;36.98;32.35;39.70;;
46749;Laerm;33775;47.992;11.864;2024-01-10T05:42:55;36.98;31.68;39.92;;
46749;Laerm;33775;47.992;11.864;2024-01-10T05:45:21;36.97;31.68;40.03;;
46749;Laerm;33775;47.992;11.864;2024-01-10T05:47:46;36.97;31.68;39.70;;
46749;Laerm;33775;47.992;11.864;2024-01-10T05:50:13;36.98;31.68;39.92;;
46749;Laerm;33775;47.992;11.864;2024-01-10T05:52:38;36.97;30.89;39.81;;
46749;Laerm;33775;47.992;11.864;2024-01-10T05:55:04;36.92;31.68;39.68;;
46749;Laerm;33775;47.992;11.864;2024-01-10T05:57:29;36.92;32.93;39.81;;
46749;Laerm;33775;47.992;11.864;2024-01-10T05:59:55;36.88;32.35;39.70;;
46749;Laerm;33775;47.992;11.864;2024-01-10T06:02:23;36.88;31.68;39.92;;
46749;Laerm;33775;47.992;11.864;2024-01-10T06:04:49;36.86;32.35;39.70;;
46749;Laerm;33775;47.992;11.864;2024-01-10T06:07:14;36.86;30.89;39.92;;
46749;Laerm;33775;47.992;11.864;2024-01-10T06:09:40;36.86;32.35;40.03;;
46749;Laerm;33775;47.992;11.864;2024-01-10T06:12:05;36.86;30.89;39.58;;
46749;Laerm;33775;47.992;11.864;2024-01-10T06:14:31;36.84;30.89;39.92;;
46749;Laerm;33775;47.992;11.864;2024-01-10T06:16:56;36.81;31.68;39.78;;
46749;Laerm;33775;47.992;11.864;2024-01-10T06:19:24;36.80;31.68;39.81;;
46749;Laerm;33775;47.992;11.864;2024-01-10T06:21:49;36.82;31.68;39.34;;
46749;Laerm;33775;47.992;11.864;2024-01-10T06:24:15;36.79;31.68;39.70;;
46749;Laerm;33775;47.992;11.864;2024-01-10T06:26:40;36.83;32.35;39.34;;
46749;Laerm;33775;47.992;11.864;2024-01-10T06:29:05;36.80;32.35;39.92;;
46749;Laerm;33775;47.992;11.864;2024-01-10T06:31:31;36.81;31.68;39.70;;
46749;Laerm;33775;47.992;11.864;2024-01-10T06:33:56;36.78;30.89;39.58;;
46749;Laerm;33775;47.992;11.864;2024-01-10T06:36:21;36.77;32.35;40.23;;
46749;Laerm;33775;47.992;11.864;2024-01-10T06:38:47;36.79;30.89;40.23;;
46749;Laerm;33775;47.992;11.864;2024-01-10T06:41:12;36.78;31.68;39.81;;
46749;Laerm;33775;47.992;11.864;2024-01-10T06:43:40;36.80;32.35;39.58;;
46749;Laerm;33775;47.992;11.864;2024-01-10T06:46:05;36.80;32.35;39.58;;
46749;Laerm;33775;47.992;11.864;2024-01-10T06:48:31;36.77;31.68;39.70;;
46749;Laerm;33775;47.992;11.864;2024-01-10T06:50:57;36.74;31.68;39.34;;
46749;Laerm;33775;47.992;11.864;2024-01-10T06:53:22;36.74;28.67;39.70;;
46749;Laerm;33775;47.992;11.864;2024-01-10T06:55:47;36.75;30.89;39.46;;
46749;Laerm;33775;47.992;11.864;2024-01-10T06:58:12;36.75;31.68;39.70;;
46749;Laerm;33775;47.992;11.864;2024-01-10T07:00:37;36.71;29.57;39.70;;
46749;Laerm;33775;47.992;11.864;2024-01-10T07:03:03;36.76;29.92;39.34;;
46749;Laerm;33775;47.992;11.864;2024-01-10T07:05:28;36.70;29.92;39.58;;
46749;Laerm;33775;47.992;11.864;2024-01-10T07:07:54;36.70;32.35;39.46;;
46749;Laerm;33775;47.992;11.864;2024-01-10T07:10:19;36.71;31.68;39.92;;
46749;Laerm;33775;47.992;11.864;2024-01-10T07:12:44;36.71;31.68;39.58;;
46749;Laerm;33775;47.992;11.864;2024-01-10T07:15:10;36.72;30.89;39.70;;
46749;Laerm;33775;47.992;11.864;2024-01-10T07:17:36;36.68;30.89;39.81;;
46749;Laerm;33775;47.992;11.864;2024-01-10T07:20:01;36.72;31.33;39.46;;
46749;Laerm;33775;47.992;11.864;2024-01-10T07:22:26;36.69;30.89;39.58;;
46749;Laerm;33775;47.992;11.864;2024-01-10T07:24:51;36.69;30.89;39.81;;
46749;Laerm;33775;47.992;11.864;2024-01-10T07:27:16;36.72;30.89;39.34;;
46749;Laerm;33775;47.992;11.864;2024-01-10T07:29:43;36.70;32.35;39.58;;
46749;Laerm;33775;47.992;11.864;2024-01-10T07:32:08;36.70;32.35;39.46;;
46749;Laerm;33775;47.992;11.864;2024-01-10T07:34:39;36.75;31.68;39.34;;
46749;Laerm;33775;47.992;11.864;2024-01-10T07:37:04;36.74;31.68;40.33;;
46749;Laerm;33775;47.992;11.864;2024-01-10T07:39:30;36.77;31.68;39.35;;
46749;Laerm;33775;47.992;11.864;2024-01-10T07:41:55;36.78;32.35;39.81;;
46749;Laerm;33775;47.992;11.864;2024-01-10T07:44:20;36.79;30.89;39.46;;
46749;Laerm;33775;47.992;11.864;2024-01-10T07:46:46;36.79;31.68;39.70;;
46749;Laerm;33775;47.992;11.864;2024-01-10T07:49:11;36.82;32.35;40.23;;
46749;Laerm;33775;47.992;11.864;2024-01-10T07:51:36;36.85;30.89;40.53;;
46749;Laerm;33775;47.992;11.864;2024-01-10T07:54:01;36.89;31.68;39.92;;
46749;Laerm;33775;47.992;11.864;2024-01-10T07:56:27;36.90;30.89;39.58;;
46749;Laerm;33775;47.992;11.864;2024-01-10T07:58:52;36.91;32.35;39.89;;
46749;Laerm;33775;47.992;11.864;2024-01-10T08:01:17;36.91;31.68;39.70;;
46749;Laerm;33775;47.992;11.864;2024-01-10T08:03:43;36.95;32.35;40.03;;
46749;Laerm;33775;47.992;11.864;2024-01-10T08:06:08;36.96;32.35;39.81;;
46749;Laerm;33775;47.992;11.864;2024-01-10T08:08:33;36.96;32.35;39.81;;
46749;Laerm;33775;47.992;11.864;2024-01-10T08:10:58;36.96;32.35;39.58;;
46749;Laerm;33775;47.992;11.864;2024-01-10T08:13:23;36.94;29.92;39.92;;
46749;Laerm;33775;47.992;11.864;2024-01-10T08:15:49;36.95;29.92;39.46;;
46749;Laerm;33775;47.992;11.864;2024-01-10T08:18:14;37.00;31.68;39.70;;
46749;Laerm;33775;47.992;11.864;2024-01-10T08:20:39;37.00;32.93;39.70;;
46749;Laerm;33775;47.992;11.864;2024-01-10T08:23:05;37.02;32.35;40.13;;
46749;Laerm;33775;47.992;11.864;2024-01-10T08:25:30;37.05;31.68;39.81;;
46749;Laerm;33775;47.992;11.864;2024-01-10T08:27:55;37.03;32.35;40.13;;
46749;Laerm;33775;47.992;11.864;2024-01-10T08:30:22;37.07;32.35;39.92;;
46749;Laerm;33775;47.992;11.864;2024-01-10T08:32:48;37.07;31.68;40.23;;
46749;Laerm;33775;47.992;11.864;2024-01-10T08:35:13;37.11;30.89;39.81;;
46749;Laerm;33775;47.992;11.864;2024-01-10T08:37:39;37.07;32.35;40.71;;
46749;Laerm;33775;47.992;11.864;2024-01-10T08:40:07;37.08;31.68;40.03;;
46749;Laerm;33775;47.992;11.864;2024-01-10T08:42:36;37.10;30.89;40.23;;
46749;Laerm;33775;47.992;11.864;2024-01-10T08:45:03;37.09;32.93;39.92;;
46749;Laerm;33775;47.992;11.864;2024-01-10T08:47:28;37.08;31.68;40.23;;
46749;Laerm;33775;47.992;11.864;2024-01-10T08:49:56;37.09;32.35;39.92;;
46749;Laerm;33775;47.992;11.864;2024-01-10T08:52:21;37.12;32.35;40.03;;
46749;Laerm;33775;47.992;11.864;2024-01-10T08:54:46;37.13;32.35;40.23;;
46749;Laerm;33775;47.992;11.864;2024-01-10T08:57:11;37.11;32.00;39.81;;
46749;Laerm;33775;47.992;11.864;2024-01-10T08:59:37;37.12;29.92;39.92;;
46749;Laerm;33775;47.992;11.864;2024-01-10T09:02:06;37.13;32.93;39.81;;
46749;Laerm;33775;47.992;11.864;2024-01-10T09:04:32;37.12;32.35;39.92;;
46749;Laerm;33775;47.992;11.864;2024-01-10T09:06:57;37.12;32.35;39.70;;
46749;Laerm;33775;47.992;11.864;2024-01-10T09:09:23;37.11;32.35;40.53;;
46749;Laerm;33775;47.992;11.864;2024-01-10T09:11:49;37.10;32.58;39.70;;
46749;Laerm;33775;47.992;11.864;2024-01-10T09:14:14;37.10;31.68;39.81;;
46749;Laerm;33775;47.992;11.864;2024-01-10T09:16:39;37.09;31.68;40.03;;
46749;Laerm;33775;47.992;11.864;2024-01-10T09:19:05;37.10;32.93;39.70;;
46749;Laerm;33775;47.992;11.864;2024-01-10T09:21:30;37.10;31.68;39.81;;
46749;Laerm;33775;47.992;11.864;2024-01-10T09:23:55;37.11;33.44;39.81;;
46749;Laerm;33775;47.992;11.864;2024-01-10T09:26:21;37.11;31.68;39.92;;
46749;Laerm;33775;47.992;11.864;2024-01-10T09:28:47;37.11;32.35;39.92;;
46749;Laerm;33775;47.992;11.864;2024-01-10T09:31:12;37.11;30.89;40.03;;
46749;Laerm;33775;47.992;11.864;2024-01-10T09:33:37;37.09;31.68;39.81;;
46749;Laerm;33775;47.992;11.864;2024-01-10T09:36:03;37.14;33.44;40.23;;
46749;Laerm;33775;47.992;11.864;2024-01-10T09:38:28;37.13;32.35;39.81;;
46749;Laerm;33775;47.992;11.864;2024-01-10T09:40:55;37.12;32.93;40.03;;
46749;Laerm;33775;47.992;11.864;2024-01-10T09:43:26;37.12;31.68;40.13;;
46749;Laerm;33775;47.992;11.864;2024-01-10T09:45:51;37.12;32.58;39.81;;
46749;Laerm;33775;47.992;11.864;2024-01-10T09:48:18;37.14;32.93;40.03;;
46749;Laerm;33775;47.992;11.864;2024-01-10T09:50:43;37.15;31.68;39.92;;
46749;Laerm;33775;47.992;11.864;2024-01-10T09:53:11;37.13;32.93;39.81;;
46749;Laerm;33775;47.992;11.864;2024-01-10T09:55:38;37.15;31.68;40.03;;
46749;Laerm;33775;47.992;11.864;2024-01-10T09:58:06;37.12;32.93;39.81;;
46749;Laerm;33775;47.992;11.864;2024-01-10T10:00:34;37.14;32.35;40.23;;
46749;Laerm;33775;47.992;11.864;2024-01-10T10:03:00;37.15;32.35;40.03;;
46749;Laerm;33775;47.992;11.864;2024-01-10T10:05:26;37.13;31.68;40.03;;
46749;Laerm;33775;47.992;11.864;2024-01-10T10:07:52;37.15;31.68;40.03;;
46749;Laerm;33775;47.992;11.864;2024-01-10T10:10:21;37.12;32.35;40.03;;
46749;Laerm;33775;47.992;11.864;2024-01-10T10:15:18;37.11;32.93;40.23;;
46749;Laerm;33775;47.992;11.864;2024-01-10T10:17:44;37.10;32.93;39.70;;
46749;Laerm;33775;47.992;11.864;2024-01-10T10:20:21;37.08;30.89;40.13;;
46749;Laerm;33775;47.992;11.864;2024-01-10T10:23:03;37.09;30.89;40.23;;
46749;Laerm;33775;47.992;11.864;2024-01-10T10:25:32;37.05;32.00;39.92;;
46749;Laerm;33775;47.992;11.864;2024-01-10T10:27:58;37.07;29.92;39.81;;
46749;Laerm;33775;47.992;11.864;2024-01-10T10:30:23;37.05;30.89;39.92;;
46749;Laerm;33775;47.992;11.864;2024-01-10T10:32:49;37.05;32.35;39.81;;
46749;Laerm;33775;47.992;11.864;2024-01-10T10:35:14;37.07;32.35;39.92;;
46749;Laerm;33775;47.992;11.864;2024-01-10T10:37:40;37.06;30.89;40.03;;
46749;Laerm;33775;47.992;11.864;2024-01-10T10:40:05;37.07;32.35;39.99;;
46749;Laerm;33775;47.992;11.864;2024-01-10T10:42:33;37.06;32.35;40.13;;
46749;Laerm;33775;47.992;11.864;2024-01-10T10:45:02;37.10;29.92;40.23;;
46749;Laerm;33775;47.992;11.864;2024-01-10T10:47:29;37.09;32.35;40.13;;
46749;Laerm;33775;47.992;11.864;2024-01-10T10:49:56;37.09;32.35;40.13;;
46749;Laerm;33775;47.992;11.864;2024-01-10T10:52:24;37.04;32.35;40.03;;
46749;Laerm;33775;47.992;11.864;2024-01-10T10:54:50;37.05;29.92;40.03;;
46749;Laerm;33775;47.992;11.864;2024-01-10T10:57:20;37.04;30.89;39.81;;
46749;Laerm;33775;47.992;11.864;2024-01-10T10:59:45;37.03;29.92;40.33;;
46749;Laerm;33775;47.992;11.864;2024-01-10T11:02:11;37.05;29.92;40.03;;
46749;Laerm;33775;47.992;11.864;2024-01-10T11:04:36;37.04;32.35;40.80;;
46749;Laerm;33775;47.992;11.864;2024-01-10T11:07:03;37.02;32.35;40.03;;
46749;Laerm;33775;47.992;11.864;2024-01-10T11:09:28;37.01;31.68;39.81;;
46749;Laerm;33775;47.992;11.864;2024-01-10T11:12:27;36.99;31.68;39.92;;
46749;Laerm;33775;47.992;11.864;2024-01-10T11:14:50;36.96;30.89;39.81;;
46749;Laerm;33775;47.992;11.864;2024-01-10T11:22:42;37.02;31.68;39.92;;
46749;Laerm;33775;47.992;11.864;2024-01-10T11:25:08;37.05;30.54;39.92;;
46749;Laerm;33775;47.992;11.864;2024-01-10T11:27:33;37.03;31.68;40.08;;
46749;Laerm;33775;47.992;11.864;2024-01-10T11:30:01;37.01;31.68;39.92;;
46749;Laerm;33775;47.992;11.864;2024-01-10T11:32:29;37.06;32.35;40.13;;
46749;Laerm;33775;47.992;11.864;2024-01-10T11:34:56;37.11;32.93;39.92;;
46749;Laerm;33775;47.992;11.864;2024-01-10T11:37:23;37.09;32.35;40.33;;
46749;Laerm;33775;47.992;11.864;2024-01-10T11:39:50;37.05;31.68;39.70;;
46749;Laerm;33775;47.992;11.864;2024-01-10T11:42:22;37.02;30.89;40.03;;
46749;Laerm;33775;47.992;11.864;2024-01-10T11:44:48;36.94;31.68;39.81;;
46749;Laerm;33775;47.992;11.864;2024-01-10T11:47:19;36.97;30.89;40.03;;
46749;Laerm;33775;47.992;11.864;2024-01-10T11:49:54;36.94;30.89;40.03;;
46749;Laerm;33775;47.992;11.864;2024-01-10T11:52:21;36.94;31.68;39.58;;
46749;Laerm;33775;47.992;11.864;2024-01-10T11:54:46;36.92;29.92;39.70;;
46749;Laerm;33775;47.992;11.864;2024-01-10T11:59:43;36.91;31.68;39.92;;
46749;Laerm;33775;47.992;11.864;2024-01-10T12:02:13;36.90;29.92;39.70;;
46749;Laerm;33775;47.992;11.864;2024-01-10T12:04:38;36.92;29.92;39.81;;
46749;Laerm;33775;47.992;11.864;2024-01-10T12:07:05;36.87;31.68;39.81;;
46749;Laerm;33775;47.992;11.864;2024-01-10T12:09:32;36.85;29.92;39.92;;
46749;Laerm;33775;47.992;11.864;2024-01-10T12:11:57;36.86;30.89;40.13;;
46749;Laerm;33775;47.992;11.864;2024-01-10T12:14:22;36.85;30.89;40.13;;
46749;Laerm;33775;47.992;11.864;2024-01-10T12:16:48;36.85;30.89;39.81;;
46749;Laerm;33775;47.992;11.864;2024-01-10T12:19:15;36.85;30.89;40.13;;
46749;Laerm;33775;47.992;11.864;2024-01-10T12:21:40;36.87;31.33;39.81;;
46749;Laerm;33775;47.992;11.864;2024-01-10T12:24:06;36.88;30.89;39.92;;
46749;Laerm;33775;47.992;11.864;2024-01-10T12:26:31;36.91;29.57;39.81;;
46749;Laerm;33775;47.992;11.864;2024-01-10T12:28:57;36.88;30.89;39.81;;
46749;Laerm;33775;47.992;11.864;2024-01-10T12:31:23;36.89;31.68;39.81;;
46749;Laerm;33775;47.992;11.864;2024-01-10T12:33:48;36.87;30.89;39.81;;
46749;Laerm;33775;47.992;11.864;2024-01-10T12:36:13;36.88;30.89;39.58;;
46749;Laerm;33775;47.992;11.864;2024-01-10T12:38:39;36.90;30.89;40.13;;
46749;Laerm;33775;47.992;11.864;2024-01-10T12:41:04;36.89;30.89;39.92;;
46749;Laerm;33775;47.992;11.864;2024-01-10T12:43:30;36.88;31.68;40.03;;
46749;Laerm;33775;47.992;11.864;2024-01-10T12:46:09;36.85;32.35;39.70;;
46749;Laerm;33775;47.992;11.864;2024-01-10T12:48:37;36.88;30.89;39.70;;
46749;Laerm;33775;47.992;11.864;2024-01-10T12:51:06;36.91;30.89;40.03;;
46749;Laerm;33775;47.992;11.864;2024-01-10T12:53:35;36.92;30.89;40.03;;
46749;Laerm;33775;47.992;11.864;2024-01-10T12:56:01;36.93;31.68;39.81;;
46749;Laerm;33775;47.992;11.864;2024-01-10T12:58:27;36.94;32.35;39.92;;
46749;Laerm;33775;47.992;11.864;2024-01-10T13:00:52;36.96;30.89;39.92;;
46749;Laerm;33775;47.992;11.864;2024-01-10T13:03:17;36.95;31.68;40.03;;
46749;Laerm;33775;47.992;11.864;2024-01-10T13:05:43;36.97;31.68;40.23;;
46749;Laerm;33775;47.992;11.864;2024-01-10T13:08:09;36.93;31.68;40.03;;
46749;Laerm;33775;47.992;11.864;2024-01-10T13:10:35;36.90;31.68;40.03;;
46749;Laerm;33775;47.992;11.864;2024-01-10T13:13:00;36.92;32.35;39.58;;
46749;Laerm;33775;47.992;11.864;2024-01-10T13:15:26;36.92;29.92;40.23;;
46749;Laerm;33775;47.992;11.864;2024-01-10T13:17:51;36.93;31.68;39.81;;
46749;Laerm;33775;47.992;11.864;2024-01-10T13:20:16;36.91;28.67;39.92;;
46749;Laerm;33775;47.992;11.864;2024-01-10T13:22:41;36.92;31.68;40.23;;
46749;Laerm;33775;47.992;11.864;2024-01-10T13:25:07;36.94;31.68;40.13;;
46749;Laerm;33775;47.992;11.864;2024-01-10T13:27:33;36.91;29.92;39.92;;
46749;Laerm;33775;47.992;11.864;2024-01-10T13:29:58;36.93;30.89;39.92;;
46749;Laerm;33775;47.992;11.864;2024-01-10T13:32:23;36.94;28.67;40.03;;
46749;Laerm;33775;47.992;11.864;2024-01-10T13:34:48;36.91;29.92;39.70;;